Tocina, Spain
Current Conditions -  °F | °C
As of 6:30 AM on Wednesday 22 Oct 2014 (Local Time) from LEZL Reporting Station
Clear Clear  
Wind Chill: 66°   Ceiling: Unl
Heat Index: 66°   Visibility: 6mi
Dew Point: 57°   Wind: 1mph
Humidity: 73%   Direction: NA
Pressure: 30.21"   Gusts: NA
Location:  37.61°N, 5.73°W
Report Text: LEZL 220430Z VRB01KT CAVOK 19/14 Q1023 NOSIG
Loading
Personal Weather Stations






























Interactive Weather Map
Tropical Storm Tracking
New forecast layout! Learn more

10-Day Weather Forecast

Advertisements
Track Severe Weather on mobile